Time;durP1;ratioP1;P1;durP2;ratioP2;P2;SDS_P1;SDS_P2;PMS_P1;PMS_P2;Temp;Humidity;BMP_temperature;BMP_pressure;BME280_temperature;BME280_humidity;BME280_pressure;Samples;Min_cycle;Max_cycle;Signal;HPM_P1;HPM_P2
2023/01/05 00:01:33;;;;;;;13.25;3.00;;;;;;;-140.72;100.00;53123.44;5115717;27;20030;-70
2023/01/05 00:03:58;;;;;;;12.63;2.63;;;;;;;-140.72;100.00;53125.47;5125577;27;20470;-71
2023/01/05 00:06:24;;;;;;;6.35;1.70;;;;;;;-140.72;100.00;53119.38;5121584;27;20122;-71
2023/01/05 00:08:50;;;;;;;10.93;1.95;;;;;;;-140.72;100.00;53133.59;5123804;27;20557;-71
2023/01/05 00:22:30;;;;;;;10.80;2.50;;;;;;;-140.72;100.00;53151.84;5116493;27;20039;-76
2023/01/05 00:24:56;;;;;;;13.77;2.95;;;;;;;-140.72;100.00;53145.75;5119923;27;20020;-73
2023/01/05 00:27:21;;;;;;;12.15;2.95;;;;;;;-140.72;100.00;53123.44;5124185;27;20080;-74
2023/01/05 00:29:47;;;;;;;9.93;1.80;;;;;;;-140.72;100.00;53121.41;5123939;27;20507;-73
2023/01/05 00:32:12;;;;;;;11.57;2.42;;;;;;;-140.72;100.00;53105.19;5119617;27;20028;-70
2023/01/05 00:34:37;;;;;;;14.52;2.42;;;;;;;-140.72;100.00;53133.59;5120630;27;20027;-71
2023/01/05 00:37:03;;;;;;;7.70;2.60;;;;;;;-140.72;100.00;53137.66;5118725;27;20098;-72
2023/01/05 00:39:28;;;;;;;16.40;1.85;;;;;;;-140.72;100.00;53127.50;5118423;27;20065;-74
2023/01/05 00:41:53;;;;;;;9.32;2.45;;;;;;;-140.72;100.00;53137.66;5128479;27;20023;-71
2023/01/05 00:44:19;;;;;;;18.38;2.45;;;;;;;-140.72;100.00;53101.13;5125548;27;20419;-75
2023/01/05 00:46:44;;;;;;;19.33;3.45;;;;;;;-140.72;100.00;53151.84;5114969;27;20105;-71
2023/01/05 00:49:10;;;;;;;14.98;3.10;;;;;;;-140.72;100.00;53099.09;5121974;27;20034;-71
2023/01/05 00:51:35;;;;;;;10.05;2.08;;;;;;;-140.72;100.00;53135.63;5121750;27;20015;-71
2023/01/05 00:54:00;;;;;;;10.68;2.42;;;;;;;-140.72;100.00;53103.16;5124369;27;20019;-74
2023/01/05 00:56:26;;;;;;;5.35;2.08;;;;;;;-140.72;100.00;53135.63;5118760;27;20036;-73
2023/01/05 00:58:54;;;;;;;9.18;2.17;;;;;;;-140.72;100.00;53101.13;5115249;27;20451;-71
2023/01/05 01:01:20;;;;;;;8.82;2.28;;;;;;;-140.72;100.00;53125.47;5119813;27;20099;-71
2023/01/05 01:03:45;;;;;;;13.80;3.28;;;;;;;-140.72;100.00;53115.31;5124292;28;20019;-71
2023/01/05 01:06:12;;;;;;;10.10;2.63;;;;;;;-140.72;100.00;53117.34;5120576;28;20111;-71
2023/01/05 01:08:37;;;;;;;11.52;2.20;;;;;;;-140.72;100.00;53113.28;5122996;28;20023;-73
2023/01/05 01:11:05;;;;;;;11.20;2.53;;;;;;;-140.72;100.00;53117.34;5122647;28;20030;-75
2023/01/05 01:13:31;;;;;;;11.68;3.22;;;;;;;-140.72;100.00;53103.16;5121149;28;20110;-72
2023/01/05 01:15:56;;;;;;;13.43;2.78;;;;;;;-140.72;100.00;53129.53;5124980;28;20144;-70
2023/01/05 01:18:22;;;;;;;15.23;2.97;;;;;;;-140.72;100.00;53149.81;5119695;28;20034;-76
2023/01/05 01:20:48;;;;;;;11.88;2.88;;;;;;;-140.72;100.00;53117.34;5120977;28;20516;-70
2023/01/05 01:23:13;;;;;;;11.25;2.67;;;;;;;-140.72;100.00;53147.78;5118876;28;20019;-72
2023/01/05 01:25:38;;;;;;;12.82;2.60;;;;;;;-140.72;100.00;53113.28;5126020;28;20015;-76
2023/01/05 01:28:04;;;;;;;11.23;2.63;;;;;;;-140.72;100.00;53115.31;5120577;28;20019;-71
2023/01/05 01:30:30;;;;;;;16.33;3.03;;;;;;;-140.72;100.00;53147.78;5122923;28;20024;-71
2023/01/05 01:32:55;;;;;;;9.45;2.20;;;;;;;-140.72;100.00;53145.75;5124992;28;20387;-74
2023/01/05 01:35:21;;;;;;;11.25;2.30;;;;;;;-140.72;100.00;53143.72;5125900;28;20072;-70
2023/01/05 01:37:46;;;;;;;10.02;2.15;;;;;;;-140.72;100.00;53117.34;5116558;28;20535;-70
2023/01/05 01:40:12;;;;;;;15.48;2.22;;;;;;;-140.72;100.00;53127.50;5118357;28;20058;-70
2023/01/05 01:42:38;;;;;;;13.15;2.40;;;;;;;-140.72;100.00;53119.38;5125647;28;20019;-71
2023/01/05 01:45:18;;;;;;;8.48;1.75;;;;;;;-140.72;100.00;53117.34;5118661;28;20535;-71
2023/01/05 01:48:00;;;;;;;13.75;2.45;;;;;;;-140.72;100.00;53121.41;5123811;28;20092;-72
2023/01/05 01:50:32;;;;;;;10.70;3.08;;;;;;;-140.72;100.00;53157.94;5128096;28;20054;-74
2023/01/05 01:53:10;;;;;;;16.25;2.40;;;;;;;-140.72;100.00;53109.22;5123651;28;20316;-75
2023/01/05 01:55:37;;;;;;;9.43;1.70;;;;;;;-140.72;100.00;53168.09;5122350;28;20374;-70
2023/01/05 01:58:06;;;;;;;8.60;1.83;;;;;;;-140.72;100.00;53125.47;5123905;28;20077;-74
2023/01/05 02:00:32;;;;;;;15.18;2.63;;;;;;;-140.72;100.00;53125.47;5125771;28;20019;-74
2023/01/05 02:02:58;;;;;;;5.85;2.17;;;;;;;-140.72;100.00;53129.53;5120880;28;20012;-71
2023/01/05 02:05:31;;;;;;;17.88;2.88;;;;;;;-140.72;100.00;53139.69;5112450;28;20107;-73
2023/01/05 02:07:57;;;;;;;11.70;2.72;;;;;;;-140.72;100.00;53143.72;5120574;28;20049;-70
2023/01/05 02:10:41;;;;;;;6.20;1.85;;;;;;;-140.72;100.00;53162.00;5123082;27;20110;-73
2023/01/05 02:13:22;;;;;;;8.20;1.90;;;;;;;-140.72;100.00;53164.03;5121602;27;20023;-74
2023/01/05 02:16:17;;;;;;;11.48;1.73;;;;;;;-140.72;100.00;53097.06;5119290;27;20124;-75
2023/01/05 02:19:07;;;;;;;21.35;3.08;;;;;;;-140.72;100.00;53119.38;5118342;27;20015;-71
2023/01/05 02:21:58;;;;;;;14.07;2.05;;;;;;;-140.72;100.00;53153.88;5124063;27;20653;-74
2023/01/05 02:25:05;;;;;;;11.45;2.50;;;;;;;-140.72;100.00;53129.53;5123134;27;20041;-71
2023/01/05 02:28:01;;;;;;;10.20;2.53;;;;;;;-140.72;100.00;53117.34;5104956;27;20031;-72
2023/01/05 02:30:32;;;;;;;11.02;3.03;;;;;;;-140.72;100.00;53143.72;5120269;27;20034;-71
2023/01/05 02:33:19;;;;;;;10.57;1.77;;;;;;;-140.72;100.00;53153.88;5126382;27;20043;-72
2023/01/05 02:36:07;;;;;;;9.73;1.92;;;;;;;-140.72;100.00;53137.66;5130134;27;20058;-71
2023/01/05 02:38:41;;;;;;;18.73;2.80;;;;;;;-140.72;100.00;53149.81;5127848;27;20152;-76
2023/01/05 02:41:26;;;;;;;8.70;1.80;;;;;;;-140.72;100.00;53162.00;5122264;27;20038;-71
2023/01/05 02:43:53;;;;;;;10.35;2.50;;;;;;;-140.72;100.00;53170.13;5118110;27;20465;-72
2023/01/05 02:46:19;;;;;;;9.48;2.83;;;;;;;-140.72;100.00;53147.78;5120859;27;20364;-71
2023/01/05 02:48:49;;;;;;;11.63;1.77;;;;;;;-140.72;100.00;53157.94;5120579;27;20119;-72
2023/01/05 02:51:31;;;;;;;11.73;2.85;;;;;;;-140.72;100.00;53117.34;5120322;27;20466;-73
2023/01/05 02:54:05;;;;;;;11.77;2.35;;;;;;;-140.72;100.00;53097.06;5118526;27;20042;-74
2023/01/05 02:56:37;;;;;;;12.30;3.00;;;;;;;-140.72;100.00;53131.56;5119349;27;20112;-73
2023/01/05 02:59:13;;;;;;;11.23;3.00;;;;;;;-140.72;100.00;53123.44;5124518;27;20023;-74
2023/01/05 03:01:44;;;;;;;15.63;2.92;;;;;;;-140.72;100.00;53097.06;5125028;27;20099;-71
2023/01/05 03:04:20;;;;;;;13.60;2.45;;;;;;;-140.72;100.00;53137.66;5122801;27;20023;-71
2023/01/05 03:07:01;;;;;;;11.75;2.30;;;;;;;-140.72;100.00;53127.50;5114145;27;20038;-71
2023/01/05 03:09:37;;;;;;;7.45;2.33;;;;;;;-140.72;100.00;53129.53;5120854;27;20035;-72
2023/01/05 03:15:30;;;;;;;18.60;2.60;;;;;;;-140.72;100.00;53143.72;5113365;27;20069;-72
2023/01/05 03:18:08;;;;;;;8.35;1.85;;;;;;;-140.72;100.00;53107.19;5125529;27;20019;-72
2023/01/05 03:20:37;;;;;;;11.38;2.75;;;;;;;-140.72;100.00;53115.31;5121931;27;20114;-72
2023/01/05 03:37:17;;;;;;;12.47;2.00;;;;;;;-140.72;100.00;53133.59;5126111;27;20379;-75
2023/01/05 03:39:45;;;;;;;13.13;2.42;;;;;;;-140.72;100.00;53141.69;5132061;27;20195;-72
2023/01/05 03:42:12;;;;;;;13.82;2.85;;;;;;;-140.72;100.00;53141.69;5119570;27;20015;-72
2023/01/05 03:44:42;;;;;;;12.48;2.58;;;;;;;-140.72;100.00;53121.41;5116872;27;20028;-71
2023/01/05 03:47:09;;;;;;;;;;;;;;;-140.72;100.00;53135.63;5120451;27;20015;-72
2023/01/05 03:49:36;;;;;;;7.75;2.67;;;;;;;-140.72;100.00;53101.13;5116501;27;19904;-72
2023/01/05 03:52:01;;;;;;;21.45;2.80;;;;;;;-140.72;100.00;53133.59;5113019;27;20043;-71
2023/01/05 03:54:26;;;;;;;12.25;2.40;;;;;;;-140.72;100.00;53113.28;5112835;27;20043;-76
2023/01/05 03:56:52;;;;;;;14.40;2.38;;;;;;;-140.72;100.00;53137.66;5117709;27;20030;-72
2023/01/05 03:59:18;;;;;;;14.43;3.20;;;;;;;-140.72;100.00;53113.28;5110930;27;20063;-74
2023/01/05 04:01:43;;;;;;;12.50;3.20;;;;;;;-140.72;100.00;53078.78;5111138;27;20031;-73
2023/01/05 04:04:09;;;;;;;7.88;2.20;;;;;;;-140.72;100.00;53164.03;5106526;28;20077;-72
2023/01/05 04:06:34;;;;;;;17.60;2.35;;;;;;;-140.72;100.00;53137.66;5113539;27;20036;-72
2023/01/05 04:08:59;;;;;;;15.77;2.50;;;;;;;-140.72;100.00;53090.97;5121142;27;20102;-72
2023/01/05 04:11:25;;;;;;;7.32;2.08;;;;;;;-140.72;100.00;53135.63;5121779;27;20043;-72
2023/01/05 04:13:51;;;;;;;17.02;3.30;;;;;;;-140.72;100.00;53105.19;5118416;27;20020;-72
2023/01/05 04:16:17;;;;;;;11.15;3.03;;;;;;;-140.72;100.00;53117.34;5121661;27;20027;-71
2023/01/05 04:18:42;;;;;;;13.32;2.78;;;;;;;-140.72;100.00;53141.69;5121640;27;20015;-72
2023/01/05 04:21:08;;;;;;;19.23;2.95;;;;;;;-140.72;100.00;53129.53;5118142;27;20373;-72
2023/01/05 04:23:34;;;;;;;15.23;3.22;;;;;;;-140.72;100.00;53113.28;5127431;27;20023;-74
2023/01/05 04:25:59;;;;;;;12.15;3.67;;;;;;;-140.72;100.00;53119.38;5123650;27;20062;-71
2023/01/05 04:28:25;;;;;;;12.18;1.60;;;;;;;-140.72;100.00;53115.31;5114439;27;20420;-72
2023/01/05 04:30:53;;;;;;;9.45;2.03;;;;;;;-140.72;100.00;53155.91;5128374;27;20034;-72
2023/01/05 04:33:19;;;;;;;10.73;3.50;;;;;;;-140.72;100.00;53127.50;5118748;27;20065;-72
2023/01/05 04:35:44;;;;;;;15.13;2.22;;;;;;;-140.72;100.00;53137.66;5119892;27;20024;-71
2023/01/05 04:38:11;;;;;;;12.65;2.45;;;;;;;-140.72;100.00;53127.50;5111463;27;20072;-75
2023/01/05 04:40:36;;;;;;;19.52;2.47;;;;;;;-140.72;100.00;53115.31;5123352;27;20023;-72
2023/01/05 04:43:01;;;;;;;12.95;2.25;;;;;;;-140.72;100.00;53111.25;5124607;27;20450;-72
2023/01/05 04:45:27;;;;;;;15.95;3.28;;;;;;;-140.72;100.00;53159.97;5118403;27;20046;-72
2023/01/05 04:47:52;;;;;;;12.90;2.60;;;;;;;-140.72;100.00;53127.50;5116610;27;20019;-72
2023/01/05 04:50:18;;;;;;;9.50;1.77;;;;;;;-140.72;100.00;53129.53;5111620;28;20362;-72
2023/01/05 04:52:44;;;;;;;15.13;2.83;;;;;;;-140.72;100.00;53117.34;5111492;28;20111;-72
2023/01/05 04:55:09;;;;;;;11.50;1.70;;;;;;;-140.72;100.00;53107.19;5111897;27;20020;-76
2023/01/05 04:57:35;;;;;;;13.63;2.28;;;;;;;-140.72;100.00;53135.63;5118663;28;20042;-72
2023/01/05 05:00:01;;;;;;;8.25;2.33;;;;;;;-140.72;100.00;53125.47;5120355;27;20023;-72
2023/01/05 05:02:26;;;;;;;14.07;1.90;;;;;;;-140.72;100.00;53115.31;5116716;27;20026;-73
2023/01/05 05:04:52;;;;;;;13.75;3.65;;;;;;;-140.72;100.00;53157.94;5104698;28;20020;-72
2023/01/05 05:07:17;;;;;;;11.85;1.83;;;;;;;-140.72;100.00;53103.16;5124684;28;20447;-75
2023/01/05 05:09:43;;;;;;;11.20;2.30;;;;;;;-140.72;100.00;53125.47;5118622;28;20100;-72
2023/01/05 05:12:08;;;;;;;18.42;2.72;;;;;;;-140.72;100.00;53129.53;5120020;28;20030;-75
2023/01/05 05:14:34;;;;;;;12.25;2.92;;;;;;;-140.72;100.00;53135.63;5117729;28;20412;-72
2023/01/05 05:16:59;;;;;;;6.32;2.25;;;;;;;-140.72;100.00;53111.25;5118561;28;20020;-72
2023/01/05 05:19:24;;;;;;;9.23;2.13;;;;;;;-140.72;100.00;53107.19;5124162;28;20023;-76
2023/01/05 05:21:50;;;;;;;14.20;3.05;;;;;;;-140.72;100.00;53080.81;5115504;28;20027;-73
2023/01/05 05:24:15;;;;;;;6.32;1.58;;;;;;;-140.72;100.00;53133.59;5123092;28;20043;-73
2023/01/05 05:26:40;;;;;;;14.98;2.72;;;;;;;-140.72;100.00;53097.06;5120836;28;20073;-74
2023/01/05 05:29:06;;;;;;;13.77;2.15;;;;;;;-140.72;100.00;53129.53;5126175;28;20024;-72
2023/01/05 05:31:31;;;;;;;7.97;1.90;;;;;;;-140.72;100.00;53105.19;5115626;28;20161;-72
2023/01/05 05:33:57;;;;;;;19.13;3.60;;;;;;;-140.72;100.00;53149.81;5118409;28;20027;-72
2023/01/05 05:36:22;;;;;;;18.27;3.17;;;;;;;-140.72;100.00;53097.06;5118069;28;20084;-71
2023/01/05 05:38:47;;;;;;;14.10;3.00;;;;;;;-140.72;100.00;53101.13;5115271;28;20095;-75
2023/01/05 05:41:13;;;;;;;12.05;2.63;;;;;;;-140.72;100.00;53117.34;5123029;28;20027;-71
2023/01/05 05:43:38;;;;;;;20.30;4.05;;;;;;;-140.72;100.00;53137.66;5112815;28;20390;-71
2023/01/05 05:46:04;;;;;;;13.45;3.60;;;;;;;-140.72;100.00;53101.13;5127200;27;20052;-72
2023/01/05 05:48:29;;;;;;;16.17;2.80;;;;;;;-140.72;100.00;53107.19;5114457;27;20072;-74
2023/01/05 05:50:55;;;;;;;15.73;3.40;;;;;;;-140.72;100.00;53137.66;5118025;27;20015;-71
2023/01/05 05:53:20;;;;;;;18.08;2.78;;;;;;;-140.72;100.00;53137.66;5124436;27;20035;-73
2023/01/05 05:55:49;;;;;;;19.83;2.17;;;;;;;-140.72;100.00;53103.16;5117853;27;20028;-71
2023/01/05 05:58:16;;;;;;;9.55;1.92;;;;;;;-140.72;100.00;53127.50;5122214;27;20028;-71
2023/01/05 06:00:42;;;;;;;15.55;3.60;;;;;;;-140.72;100.00;53082.84;5119333;27;20022;-71
2023/01/05 06:03:07;;;;;;;13.68;1.88;;;;;;;-140.72;100.00;53113.28;5122142;27;20019;-72
2023/01/05 06:05:33;;;;;;;8.82;2.28;;;;;;;-140.72;100.00;53119.38;5120832;27;20038;-72
2023/01/05 06:07:58;;;;;;;13.32;3.78;;;;;;;-140.72;100.00;53127.50;5124197;27;20026;-72
2023/01/05 06:10:24;;;;;;;10.57;2.53;;;;;;;-140.72;100.00;53135.63;5117268;27;20028;-75
2023/01/05 06:12:52;;;;;;;16.63;3.47;;;;;;;-140.72;100.00;53159.97;5121427;27;20096;-74
2023/01/05 06:15:17;;;;;;;10.40;2.70;;;;;;;-140.72;100.00;53090.97;5114298;27;20031;-71
2023/01/05 06:17:44;;;;;;;6.95;2.03;;;;;;;-140.72;100.00;53107.19;5119578;27;20479;-72
2023/01/05 06:20:10;;;;;;;16.33;2.97;;;;;;;-140.72;100.00;53147.78;5121028;27;20011;-71
2023/01/05 06:22:35;;;;;;;10.75;2.88;;;;;;;-140.72;100.00;53109.22;5129556;27;20020;-73
2023/01/05 06:25:01;;;;;;;10.05;1.83;;;;;;;-140.72;100.00;53107.19;5114156;27;20027;-71
2023/01/05 06:27:26;;;;;;;9.18;2.13;;;;;;;-140.72;100.00;53115.31;5116881;27;20068;-72
2023/01/05 06:29:51;;;;;;;16.48;2.92;;;;;;;-140.72;100.00;53105.19;5113530;28;20069;-74
2023/01/05 06:32:17;;;;;;;9.25;1.90;;;;;;;-140.72;100.00;53137.66;5129337;27;20035;-71
2023/01/05 06:34:42;;;;;;;13.65;2.42;;;;;;;-140.72;100.00;53131.56;5131931;27;20101;-75
2023/01/05 06:37:07;;;;;;;14.18;2.42;;;;;;;-140.72;100.00;53103.16;5129656;27;20046;-71
2023/01/05 06:39:33;;;;;;;10.20;2.53;;;;;;;-140.72;100.00;53143.72;5124369;27;20019;-71
2023/01/05 06:41:58;;;;;;;11.85;2.33;;;;;;;-140.72;100.00;53115.31;5114661;27;20016;-71
2023/01/05 06:44:23;;;;;;;8.73;1.85;;;;;;;-140.72;100.00;53119.38;5116438;27;20443;-76
2023/01/05 06:46:49;;;;;;;18.08;3.55;;;;;;;-140.72;100.00;53090.97;5113138;27;20108;-72
2023/01/05 06:49:14;;;;;;;17.77;2.78;;;;;;;-140.72;100.00;53162.00;5114265;27;20068;-74
2023/01/05 06:51:39;;;;;;;19.45;3.20;;;;;;;-140.72;100.00;53086.91;5131525;27;20016;-75
2023/01/05 06:54:06;;;;;;;11.20;2.83;;;;;;;-140.72;100.00;53141.69;5132305;27;20023;-72
2023/01/05 06:56:31;;;;;;;12.20;2.38;;;;;;;-140.72;100.00;53113.28;5114722;27;20032;-73
2023/01/05 06:58:56;;;;;;;15.18;3.45;;;;;;;-140.72;100.00;53097.06;5124875;27;20337;-75
2023/01/05 07:01:22;;;;;;;14.30;3.00;;;;;;;-140.72;100.00;53131.56;5118538;27;20072;-74
2023/01/05 07:03:47;;;;;;;14.75;2.80;;;;;;;-140.72;100.00;53133.59;5123895;27;20057;-72
2023/01/05 07:06:13;;;;;;;9.13;2.42;;;;;;;-140.72;100.00;53129.53;5119891;27;20507;-72
2023/01/05 07:08:39;;;;;;;9.63;2.65;;;;;;;-140.72;100.00;53137.66;5120874;27;20409;-72
2023/01/05 07:11:04;;;;;;;19.73;3.22;;;;;;;-140.72;100.00;53095.03;5126335;27;20040;-74
2023/01/05 07:13:30;;;;;;;10.80;2.92;;;;;;;-140.72;100.00;53127.50;5112892;28;20103;-76
2023/01/05 07:15:55;;;;;;;15.95;2.60;;;;;;;-140.72;100.00;53129.53;5121855;27;20019;-72
2023/01/05 07:18:20;;;;;;;13.40;2.47;;;;;;;-140.72;100.00;53139.69;5116534;27;20535;-71
2023/01/05 07:20:45;;;;;;;14.02;2.10;;;;;;;-140.72;100.00;53117.34;5115801;27;20062;-76
2023/01/05 07:23:11;;;;;;;9.07;2.17;;;;;;;-140.72;100.00;53135.63;5113264;27;20043;-72
2023/01/05 07:25:36;;;;;;;10.70;3.03;;;;;;;-140.72;100.00;53149.81;5124558;27;20035;-72
2023/01/05 07:28:02;;;;;;;13.38;2.20;;;;;;;-140.72;100.00;53151.84;5122905;27;20020;-74
2023/01/05 07:30:27;;;;;;;14.73;2.38;;;;;;;-140.72;100.00;53153.88;5113973;27;20042;-72
2023/01/05 07:32:57;;;;;;;15.25;2.55;;;;;;;-140.72;100.00;53127.50;5120365;27;20035;-72
2023/01/05 07:35:22;;;;;;;;;;;;;;;-140.72;100.00;53129.53;5120142;27;20011;-72
2023/01/05 07:37:47;;;;;;;5.88;1.75;;;;;;;-140.72;100.00;53145.75;5119078;27;20343;-72
2023/01/05 07:40:13;;;;;;;12.73;2.78;;;;;;;-140.72;100.00;53135.63;5123363;27;20015;-72
2023/01/05 07:42:38;;;;;;;10.63;2.63;;;;;;;-140.72;100.00;53119.38;5118347;27;20447;-72
2023/01/05 07:45:05;;;;;;;10.23;2.13;;;;;;;-140.72;100.00;53133.59;5126027;27;20451;-72
2023/01/05 07:47:31;;;;;;;15.90;3.42;;;;;;;-140.72;100.00;53155.91;5119628;27;20095;-72
2023/01/05 07:49:56;;;;;;;7.65;2.55;;;;;;;-140.72;100.00;53129.53;5121748;27;20026;-72
2023/01/05 07:52:21;;;;;;;25.90;3.15;;;;;;;-140.72;100.00;53143.72;5132984;27;20052;-72
2023/01/05 07:54:47;;;;;;;14.25;3.00;;;;;;;-140.72;100.00;53139.69;5126245;27;20046;-73
2023/01/05 07:57:12;;;;;;;11.40;2.35;;;;;;;-140.72;100.00;53166.06;5125845;27;20399;-72
2023/01/05 07:59:38;;;;;;;14.48;2.33;;;;;;;-140.72;100.00;53135.63;5122354;27;20024;-74
2023/01/05 08:02:03;;;;;;;11.48;1.90;;;;;;;-140.72;100.00;53117.34;5114254;27;20071;-74
2023/01/05 08:04:29;;;;;;;13.00;2.35;;;;;;;-140.72;100.00;53155.91;5122309;27;20515;-76
2023/01/05 08:06:55;;;;;;;19.52;2.85;;;;;;;-140.72;100.00;53125.47;5127900;27;20020;-72
2023/01/05 08:12:04;;;;;;;7.13;2.22;;;;;;;-140.72;100.00;53145.75;5116072;27;20100;-71
2023/01/05 08:14:30;;;;;;;10.07;2.25;;;;;;;-140.72;100.00;53131.56;5119521;27;20443;-75
2023/01/05 08:16:56;;;;;;;12.45;3.15;;;;;;;-140.72;100.00;53121.41;5118930;27;20042;-74
2023/01/05 08:19:22;;;;;;;12.93;3.20;;;;;;;-140.72;100.00;53139.69;5114437;27;20115;-72
2023/01/05 08:21:47;;;;;;;16.15;2.35;;;;;;;-140.72;100.00;53151.84;5129620;27;20506;-72
2023/01/05 08:24:12;;;;;;;12.88;2.90;;;;;;;-140.72;100.00;53149.81;5120471;27;20371;-72
2023/01/05 08:26:38;;;;;;;13.82;2.50;;;;;;;-140.72;100.00;53151.84;5120918;27;20446;-73
2023/01/05 08:29:03;;;;;;;6.57;2.45;;;;;;;-140.72;100.00;53149.81;5129533;27;20016;-72
2023/01/05 08:31:30;;;;;;;14.45;2.38;;;;;;;-140.72;100.00;53145.75;5114466;27;20126;-74
2023/01/05 08:33:58;;;;;;;19.95;2.85;;;;;;;-140.72;100.00;53172.16;5113671;27;20040;-74
2023/01/05 08:36:24;;;;;;;14.32;2.47;;;;;;;-140.72;100.00;53119.38;5114134;27;20447;-73
2023/01/05 08:38:51;;;;;;;18.20;2.30;;;;;;;-140.72;100.00;53141.69;5114149;27;20019;-72
2023/01/05 08:41:19;;;;;;;18.60;3.33;;;;;;;-140.72;100.00;53145.75;5120112;27;20035;-73
2023/01/05 08:43:50;;;;;;;9.90;2.95;;;;;;;-140.72;100.00;53111.25;5116377;27;20080;-72
2023/01/05 08:46:15;;;;;;;9.60;2.72;;;;;;;-140.72;100.00;53141.69;5118842;27;20047;-74
2023/01/05 08:48:40;;;;;;;11.52;2.78;;;;;;;-140.72;100.00;53137.66;5113354;27;20054;-72
2023/01/05 08:51:06;;;;;;;9.50;2.05;;;;;;;-140.72;100.00;53074.72;5113025;27;20114;-72
2023/01/05 08:53:33;;;;;;;14.90;2.70;;;;;;;-140.72;100.00;53125.47;5112126;27;20111;-73
2023/01/05 08:56:00;;;;;;;5.82;1.85;;;;;;;-140.72;100.00;53149.81;5128182;27;20077;-72
2023/01/05 08:58:26;;;;;;;14.90;4.75;;;;;;;-140.72;100.00;53115.31;5121874;27;20027;-74
2023/01/05 09:00:52;;;;;;;10.52;1.85;;;;;;;-140.72;100.00;53097.06;5131430;27;20038;-71
2023/01/05 09:03:18;;;;;;;11.90;2.85;;;;;;;-140.72;100.00;53103.16;5117234;28;20357;-73
2023/01/05 09:05:43;;;;;;;16.63;2.63;;;;;;;-140.72;100.00;53123.44;5118198;28;20080;-74
2023/01/05 09:08:09;;;;;;;10.30;2.75;;;;;;;-140.72;100.00;53129.53;5124618;28;20029;-75
2023/01/05 09:10:34;;;;;;;4.28;1.63;;;;;;;-140.72;100.00;53072.69;5129507;28;20324;-73
2023/01/05 09:12:59;;;;;;;19.55;2.50;;;;;;;-140.72;100.00;53097.06;5120018;28;20023;-72
2023/01/05 09:15:25;;;;;;;7.30;2.40;;;;;;;-140.72;100.00;53086.91;5118971;28;20023;-73
2023/01/05 09:17:50;;;;;;;20.83;2.95;;;;;;;-140.72;100.00;53121.41;5124461;28;20030;-72
2023/01/05 09:20:16;;;;;;;10.15;2.38;;;;;;;-140.72;100.00;53103.16;5131680;27;20072;-73
2023/01/05 09:22:41;;;;;;;11.93;3.10;;;;;;;-140.72;100.00;53109.22;5115377;28;20030;-73
2023/01/05 09:25:07;;;;;;;13.07;2.58;;;;;;;-140.72;100.00;53129.53;5131346;27;20020;-71
2023/01/05 09:27:32;;;;;;;11.10;2.38;;;;;;;-140.72;100.00;53109.22;5127123;27;20057;-72
2023/01/05 09:29:58;;;;;;;18.02;3.33;;;;;;;-140.72;100.00;53099.09;5125474;27;20027;-74
2023/01/05 09:32:26;;;;;;;12.55;2.08;;;;;;;-140.72;100.00;53107.19;5127738;27;20382;-74
2023/01/05 09:34:51;;;;;;;10.77;1.92;;;;;;;-140.72;100.00;53105.19;5121492;27;20432;-75
2023/01/05 09:37:17;;;;;;;13.93;3.38;;;;;;;-140.72;100.00;53107.19;5121643;27;20038;-73
2023/01/05 09:39:42;;;;;;;4.47;1.27;;;;;;;-140.72;100.00;53082.84;5120328;27;20065;-75
2023/01/05 09:42:14;;;;;;;9.88;2.45;;;;;;;-140.72;100.00;53076.75;5127181;27;20051;-73
2023/01/05 09:44:55;;;;;;;11.02;3.55;;;;;;;-140.72;100.00;53056.47;5125615;27;20015;-73
2023/01/05 09:47:45;;;;;;;10.85;2.85;;;;;;;-140.72;100.00;53123.44;5120584;27;20026;-73
2023/01/05 09:50:23;;;;;;;16.00;3.17;;;;;;;-140.72;100.00;53080.81;5129428;27;20343;-75
2023/01/05 09:52:52;;;;;;;10.73;2.38;;;;;;;-140.72;100.00;53042.25;5118836;27;20039;-73
2023/01/05 09:55:22;;;;;;;11.98;2.30;;;;;;;-140.72;100.00;53133.59;5119964;27;20023;-73
2023/01/05 09:57:58;;;;;;;8.85;2.30;;;;;;;-140.72;100.00;53088.94;5124305;27;20043;-74
2023/01/05 10:00:25;;;;;;;11.68;2.33;;;;;;;-140.72;100.00;53103.16;5125361;27;20050;-73
2023/01/05 10:03:05;;;;;;;9.95;2.75;;;;;;;-140.72;100.00;53066.63;5128635;27;20015;-74
2023/01/05 10:05:36;;;;;;;18.08;2.08;;;;;;;-140.72;100.00;53093.00;5121708;27;20030;-74
2023/01/05 10:08:06;;;;;;;11.25;2.85;;;;;;;-140.72;100.00;53070.69;5121115;27;20058;-73
2023/01/05 10:13:01;;;;;;;11.55;2.30;;;;;;;-140.72;100.00;53084.88;5120080;27;20050;-75
2023/01/05 10:13:33;;;;;;;15.80;3.08;;;;;;;-140.72;100.00;53068.66;5124697;27;20475;-75
2023/01/05 10:15:58;;;;;;;21.75;3.92;;;;;;;-140.72;100.00;53093.00;5125952;27;20051;-74
2023/01/05 10:18:26;;;;;;;12.00;2.38;;;;;;;-140.72;100.00;53056.47;5127773;27;20104;-74
2023/01/05 10:21:25;;;;;;;12.32;3.17;;;;;;;-140.72;100.00;53080.81;5123859;27;20034;-74
2023/01/05 10:24:18;;;;;;;13.63;3.03;;;;;;;-140.72;100.00;53070.69;5126607;27;20034;-76
2023/01/05 10:27:02;;;;;;;6.85;1.92;;;;;;;-140.72;100.00;53048.34;5119807;27;20027;-74
2023/01/05 10:29:36;;;;;;;13.23;1.98;;;;;;;-140.72;100.00;53080.81;5116364;27;20019;-74
2023/01/05 10:32:19;;;;;;;11.40;2.22;;;;;;;-140.72;100.00;53048.34;5119663;27;20127;-76
2023/01/05 10:35:11;;;;;;;10.18;2.42;;;;;;;-140.72;100.00;53103.16;5125226;27;20110;-74
2023/01/05 10:37:46;;;;;;;15.48;2.92;;;;;;;-140.72;100.00;53105.19;5126405;27;20035;-74
2023/01/05 10:40:41;;;;;;;7.20;2.78;;;;;;;-140.72;100.00;53070.69;5118367;27;20042;-74
2023/01/05 10:43:37;;;;;;;11.25;3.47;;;;;;;-140.72;100.00;53062.56;5119089;27;20023;-74
2023/01/05 10:46:03;;;;;;;8.43;2.00;;;;;;;-140.72;100.00;53090.97;5113271;27;20053;-74
2023/01/05 10:48:33;;;;;;;8.35;2.38;;;;;;;-140.72;100.00;53017.91;5116049;27;20072;-75
2023/01/05 10:50:59;;;;;;;24.90;3.78;;;;;;;-140.72;100.00;53066.63;5125847;27;20050;-74
2023/01/05 10:53:27;;;;;;;13.38;2.55;;;;;;;-140.72;100.00;53048.34;5121281;27;20019;-74
2023/01/05 10:55:56;;;;;;;11.73;2.72;;;;;;;-140.72;100.00;53015.88;5115105;27;20043;-76
2023/01/05 10:58:27;;;;;;;25.52;2.67;;;;;;;-140.72;100.00;53021.97;5120234;27;20493;-75
2023/01/05 11:00:59;;;;;;;10.13;2.72;;;;;;;-140.72;100.00;53013.84;5121203;27;20022;-74
2023/01/05 11:03:34;;;;;;;8.50;1.45;;;;;;;-140.72;100.00;53015.88;5128430;27;20038;-73
2023/01/05 11:05:59;;;;;;;9.88;2.67;;;;;;;-140.72;100.00;53038.19;5119447;27;20023;-74
2023/01/05 11:08:28;;;;;;;16.70;2.90;;;;;;;-140.72;100.00;53050.38;5127204;27;20038;-75
2023/01/05 11:11:03;;;;;;;9.00;2.50;;;;;;;-140.72;100.00;53060.53;5125489;27;20028;-74
2023/01/05 11:13:30;;;;;;;14.15;2.78;;;;;;;-140.72;100.00;53064.59;5119822;27;20023;-74
2023/01/05 11:16:01;;;;;;;12.63;2.47;;;;;;;-140.72;100.00;53050.38;5127731;27;20030;-74
2023/01/05 11:18:51;;;;;;;9.23;2.50;;;;;;;-140.72;100.00;53011.81;5127396;27;20030;-76
2023/01/05 11:21:27;;;;;;;11.85;2.45;;;;;;;-140.72;100.00;53062.56;5121223;27;20392;-74
2023/01/05 11:23:55;;;;;;;21.00;3.30;;;;;;;-140.72;100.00;53054.44;5121410;27;20493;-74
2023/01/05 11:26:49;;;;;;;11.75;2.58;;;;;;;-140.72;100.00;53054.44;5114086;28;20015;-74
2023/01/05 11:29:15;;;;;;;10.65;2.00;;;;;;;-140.72;100.00;53072.69;5125378;27;20043;-76
2023/01/05 11:31:43;;;;;;;11.43;2.40;;;;;;;-140.72;100.00;53054.44;5116958;27;20055;-74
2023/01/05 11:34:29;;;;;;;10.20;3.28;;;;;;;-140.72;100.00;53052.41;5126444;27;20019;-76
2023/01/05 11:37:01;;;;;;;17.02;3.42;;;;;;;-140.72;100.00;53058.50;5123161;27;20027;-74
2023/01/05 11:39:32;;;;;;;13.68;2.42;;;;;;;-140.72;100.00;53076.75;5121042;27;20130;-75
2023/01/05 11:42:09;;;;;;;11.45;2.75;;;;;;;-140.72;100.00;53056.47;5130196;27;20118;-75
2023/01/05 11:44:36;;;;;;;10.70;3.05;;;;;;;-140.72;100.00;53097.06;5125194;27;20027;-74